Terminal Aerodrome Forecast
Issued by NWS

Home | Current Version | Previous Version | Text Only | Print | Product List | Glossary On
Versions: 1 2 3 4 5 6 7 8 9 10 11 12 13 14 15 16
000
FTUS44 KOUN 161740
TAFLAW
TAF
KLAW 161740Z 1618/1718 20012G22KT P6SM SCT040
     FM170300 32008KT P6SM VCTS SCT035CB BKN120
      TEMPO 1703/1706 VRB25G35KT 2SM TSRA BKN025CB
     FM170900 01004KT P6SM SCT050 BKN100=

USA.gov is the U.S. government's official web portal to all federal, state and local government web resources and services.